createdAt,value
2023-05-10T00:00:59.366Z,80.10
2023-05-10T00:06:02.813Z,81.10
2023-05-10T00:11:07.479Z,81.70
2023-05-10T00:16:13.156Z,82.50
2023-05-10T00:21:16.340Z,83.40
2023-05-10T00:26:21.252Z,83.80
2023-05-10T00:31:28.534Z,84.50
2023-05-10T00:36:32.325Z,85.00
2023-05-10T00:41:37.114Z,85.10
2023-05-10T00:46:42.882Z,85.60
2023-05-10T00:51:46.877Z,86.00
2023-05-10T00:56:52.009Z,86.10
2023-05-10T01:01:55.410Z,87.00
2023-05-10T01:07:00.481Z,88.10
2023-05-10T01:12:07.974Z,88.30
2023-05-10T01:17:13.227Z,89.50
2023-05-10T01:22:43.898Z,90.30
2023-05-10T01:28:33.047Z,90.40
2023-05-10T01:33:44.651Z,90.70
2023-05-10T01:38:52.666Z,91.20
2023-05-10T01:44:02.201Z,90.90
2023-05-10T01:49:12.074Z,91.30
2023-05-10T01:54:20.353Z,92.00
2023-05-10T01:59:27.567Z,91.60
2023-05-10T02:04:33.266Z,91.80
2023-05-10T02:09:37.916Z,92.10
2023-05-10T02:14:43.196Z,92.50
2023-05-10T02:19:48.219Z,92.50
2023-05-10T02:24:52.216Z,92.70
2023-05-10T02:29:56.009Z,93.20
2023-05-10T02:35:03.928Z,93.40
2023-05-10T02:40:09.625Z,93.50
2023-05-10T02:45:21.036Z,93.40
2023-05-10T02:50:28.951Z,93.50
2023-05-10T02:55:36.557Z,93.30
2023-05-10T03:00:40.939Z,93.70
2023-05-10T03:05:46.112Z,94.10
2023-05-10T03:11:00.368Z,94.60
2023-05-10T03:16:09.396Z,94.20
2023-05-10T03:21:17.300Z,94.50
2023-05-10T03:26:27.096Z,94.60
2023-05-10T03:31:39.064Z,95.00
2023-05-10T03:36:43.961Z,94.90
2023-05-10T03:41:47.753Z,94.90
2023-05-10T03:46:51.272Z,94.60
2023-05-10T03:51:56.062Z,94.40
2023-05-10T03:56:59.413Z,95.00
2023-05-10T04:02:03.838Z,94.50
2023-05-10T04:07:10.653Z,94.40
2023-05-10T04:12:14.142Z,93.90
2023-05-10T04:17:17.592Z,93.60
2023-05-10T04:22:22.312Z,93.90
2023-05-10T04:27:25.664Z,93.60
2023-05-10T04:32:29.285Z,92.90
2023-05-10T04:37:34.107Z,92.40
2023-05-10T04:42:37.532Z,92.20
2023-05-10T04:47:40.762Z,91.80
2023-05-10T04:52:45.992Z,91.30
2023-05-10T04:57:49.504Z,91.60
2023-05-10T05:02:52.899Z,91.20
2023-05-10T05:07:57.689Z,90.40
2023-05-10T05:13:01.122Z,83.00
2023-05-10T05:18:05.152Z,77.20
2023-05-10T05:23:10.170Z,72.50
2023-05-10T05:28:13.723Z,68.10
2023-05-10T05:33:17.120Z,64.00
2023-05-10T05:38:21.927Z,62.60
2023-05-10T05:43:26.164Z,61.60
2023-05-10T05:48:31.159Z,61.00
2023-05-10T05:53:35.807Z,58.80
2023-05-10T05:58:39.147Z,58.50
2023-05-10T06:03:42.610Z,57.10
2023-05-10T06:08:47.414Z,57.40
2023-05-10T06:13:51.300Z,56.10
2023-05-10T06:18:54.585Z,55.60
2023-05-10T06:23:59.308Z,55.40
2023-05-10T06:29:03.475Z,55.70
2023-05-10T06:34:08.969Z,55.60
2023-05-10T06:39:13.727Z,54.40
2023-05-10T06:44:17.187Z,53.70
2023-05-10T06:49:20.662Z,54.50
2023-05-10T06:54:25.616Z,55.10
2023-05-10T06:59:28.888Z,53.60
2023-05-10T07:04:32.830Z,53.20
2023-05-10T07:09:37.463Z,52.20
2023-05-10T07:14:40.957Z,51.90
2023-05-10T07:19:44.358Z,51.60
2023-05-10T07:24:49.119Z,52.70
2023-05-10T07:29:53.660Z,50.60
2023-05-10T07:34:57.042Z,52.50
2023-05-10T07:40:01.766Z,51.20
2023-05-10T07:45:07.062Z,51.50
2023-05-10T07:50:10.771Z,51.20
2023-05-10T07:55:15.874Z,49.80
2023-05-10T08:00:20.980Z,50.20
2023-05-10T08:05:24.699Z,51.30
2023-05-10T08:10:29.626Z,49.70
2023-05-10T08:15:33.006Z,49.10
2023-05-10T08:20:37.034Z,49.60
2023-05-10T08:25:41.973Z,49.00
2023-05-10T08:30:45.364Z,50.00
2023-05-10T08:35:50.001Z,49.00
2023-05-10T08:40:59.946Z,50.40
2023-05-10T08:46:06.302Z,48.50
2023-05-10T08:51:12.552Z,47.80
2023-05-10T08:56:18.900Z,47.70
2023-05-10T09:01:23.465Z,47.20
2023-05-10T09:06:27.090Z,45.40
2023-05-10T09:11:32.553Z,46.80
2023-05-10T09:16:36.855Z,45.40
2023-05-10T09:21:40.469Z,46.10
2023-05-10T09:26:52.251Z,44.70
2023-05-10T09:31:56.318Z,46.00
2023-05-10T09:37:05.386Z,44.70
2023-05-10T09:42:10.932Z,46.80
2023-05-10T09:47:19.842Z,44.90
2023-05-10T09:52:23.314Z,45.60
2023-05-10T09:57:28.190Z,45.30
2023-05-10T10:02:32.564Z,44.80
2023-05-10T10:07:36.899Z,43.90
2023-05-10T10:12:42.216Z,45.80
2023-05-10T10:17:47.618Z,43.20
2023-05-10T10:23:11.394Z,45.10
2023-05-10T10:28:28.808Z,46.30
2023-05-10T10:33:41.355Z,44.60
2023-05-10T10:39:00.761Z,46.10
2023-05-10T10:44:40.260Z,47.60
2023-05-10T10:49:49.009Z,46.00
2023-05-10T10:54:53.693Z,44.90
2023-05-10T11:00:27.455Z,46.60
2023-05-10T11:05:42.549Z,46.60
2023-05-10T11:11:12.550Z,44.20
2023-05-10T11:16:19.783Z,45.70
2023-05-10T11:21:23.682Z,45.70
2023-05-10T11:26:31.705Z,44.50
2023-05-10T11:31:42.840Z,45.10
2023-05-10T11:36:52.827Z,47.30
2023-05-10T11:41:56.527Z,43.20
2023-05-10T11:47:02.154Z,43.90
2023-05-10T11:52:07.175Z,45.00
2023-05-10T11:57:10.715Z,44.00
2023-05-10T12:02:16.060Z,44.00
2023-05-10T12:07:19.561Z,43.50
2023-05-10T12:12:23.426Z,43.20
2023-05-10T12:17:31.058Z,43.00
2023-05-10T12:22:35.891Z,41.40
2023-05-10T12:27:39.302Z,42.10
2023-05-10T12:32:45.675Z,41.60
2023-05-10T12:37:49.317Z,42.70
2023-05-10T12:42:53.567Z,42.00
2023-05-10T12:47:58.610Z,42.40
2023-05-10T12:53:02.527Z,42.80
2023-05-10T12:58:06.426Z,44.30
2023-05-10T13:03:11.575Z,43.80
2023-05-10T13:08:15.174Z,43.70
2023-05-10T13:13:19.269Z,43.00
2023-05-10T13:18:25.153Z,45.90
2023-05-10T13:23:28.619Z,44.30
2023-05-10T13:28:32.530Z,44.70
2023-05-10T13:33:37.367Z,45.80
2023-05-10T13:38:40.963Z,44.50
2023-05-10T13:43:44.422Z,45.30
2023-05-10T13:48:49.135Z,44.60
2023-05-10T13:53:53.181Z,44.80
2023-05-10T13:58:56.942Z,44.60
2023-05-10T14:04:02.549Z,46.00
2023-05-10T14:09:06.126Z,45.00
2023-05-10T14:14:10.020Z,43.80
2023-05-10T14:19:14.750Z,45.40
2023-05-10T14:24:18.340Z,44.60
2023-05-10T14:29:21.735Z,44.20
2023-05-10T14:34:26.423Z,45.70
2023-05-10T14:39:31.171Z,47.10
2023-05-10T14:44:34.543Z,48.60
2023-05-10T14:49:39.276Z,48.40
2023-05-10T14:54:42.418Z,48.60
2023-05-10T14:59:45.829Z,49.70
2023-05-10T15:04:51.815Z,50.00
2023-05-10T15:09:55.699Z,48.70
2023-05-10T15:14:59.007Z,50.10
2023-05-10T15:20:05.045Z,49.80
2023-05-10T15:25:09.031Z,50.00
2023-05-10T15:30:13.238Z,50.20
2023-05-10T15:35:18.697Z,50.30
2023-05-10T15:40:22.339Z,50.50
2023-05-10T15:45:25.654Z,48.50
2023-05-10T15:50:30.264Z,47.80
2023-05-10T15:55:35.356Z,48.70
2023-05-10T16:00:39.161Z,48.00
2023-05-10T16:05:43.772Z,47.10
2023-05-10T16:10:47.026Z,48.40
2023-05-10T16:15:50.609Z,49.60
2023-05-10T16:20:55.216Z,60.40
2023-05-10T16:25:58.513Z,68.30
2023-05-10T16:31:02.463Z,72.20
2023-05-10T16:36:07.526Z,75.00
2023-05-10T16:41:11.264Z,76.20
2023-05-10T16:46:15.338Z,75.20
2023-05-10T16:51:19.982Z,77.30
2023-05-10T16:56:24.546Z,76.50
2023-05-10T17:01:28.054Z,77.50
2023-05-10T17:06:33.209Z,78.30
2023-05-10T17:11:36.502Z,80.50
2023-05-10T17:16:40.020Z,82.20
2023-05-10T17:21:44.837Z,85.70
2023-05-10T17:26:48.774Z,86.60
2023-05-10T17:31:52.146Z,89.00
2023-05-10T17:36:58.081Z,90.50
2023-05-10T17:42:01.424Z,91.40
2023-05-10T17:47:04.790Z,92.70
2023-05-10T17:52:09.635Z,94.10
2023-05-10T17:57:13.656Z,95.60
2023-05-10T18:02:17.010Z,97.90
2023-05-10T18:07:23.752Z,99.50
2023-05-10T18:12:27.106Z,99.90
2023-05-10T18:17:31.135Z,99.90
2023-05-10T18:22:36.433Z,99.90
2023-05-10T18:27:39.942Z,99.90
2023-05-10T18:32:43.455Z,99.90
2023-05-10T18:37:48.674Z,99.90
2023-05-10T18:42:52.479Z,99.90
2023-05-10T18:47:55.895Z,99.90
2023-05-10T18:53:00.659Z,99.90
2023-05-10T18:58:04.067Z,99.90
2023-05-10T19:03:07.431Z,99.90
2023-05-10T19:08:12.744Z,99.90
2023-05-10T19:13:16.179Z,99.90
2023-05-10T19:18:20.721Z,99.90
2023-05-10T19:23:25.580Z,99.90
2023-05-10T19:28:29.976Z,99.90
2023-05-10T19:33:33.421Z,99.90
2023-05-10T19:38:38.314Z,99.90
2023-05-10T19:43:42.378Z,99.90
2023-05-10T19:48:46.790Z,99.90
2023-05-10T19:53:53.077Z,99.90
2023-05-10T19:58:56.402Z,99.90
2023-05-10T20:03:59.737Z,99.90
2023-05-10T20:09:04.974Z,99.90
2023-05-10T20:14:08.823Z,99.90
2023-05-10T20:19:12.947Z,99.90
2023-05-10T20:24:18.385Z,99.90
2023-05-10T20:29:21.572Z,99.90
2023-05-10T20:34:24.956Z,99.90
2023-05-10T20:39:30.054Z,99.90
2023-05-10T20:44:33.421Z,99.90
2023-05-10T20:49:38.033Z,99.90
2023-05-10T20:54:42.692Z,99.90
2023-05-10T20:59:46.007Z,99.90
2023-05-10T21:04:49.463Z,99.90
2023-05-10T21:09:54.199Z,99.90
2023-05-10T21:14:57.502Z,99.90
2023-05-10T21:20:00.946Z,99.90
2023-05-10T21:25:07.398Z,99.90
2023-05-10T21:30:11.948Z,99.90
2023-05-10T21:35:15.893Z,99.90
2023-05-10T21:40:21.014Z,99.90
2023-05-10T21:45:24.349Z,99.90
2023-05-10T21:50:28.467Z,99.90
2023-05-10T21:55:34.375Z,99.90
2023-05-10T22:00:37.915Z,99.90
2023-05-10T22:05:42.188Z,99.90
2023-05-10T22:10:46.841Z,99.90
2023-05-10T22:15:51.668Z,99.90
2023-05-10T22:20:55.308Z,99.90
2023-05-10T22:26:02.618Z,99.90
2023-05-10T22:31:10.145Z,99.90
2023-05-10T22:36:15.166Z,99.90
2023-05-10T22:41:19.909Z,99.90
2023-05-10T22:46:23.491Z,99.90
2023-05-10T22:51:27.241Z,99.90
2023-05-10T22:56:32.295Z,99.90
2023-05-10T23:01:35.769Z,99.90
2023-05-10T23:06:39.645Z,99.90
2023-05-10T23:11:44.760Z,99.90
2023-05-10T23:16:48.061Z,99.90
2023-05-10T23:21:51.445Z,99.90
2023-05-10T23:26:56.108Z,99.90
2023-05-10T23:32:00.146Z,99.90
2023-05-10T23:37:03.568Z,99.90
2023-05-10T23:42:09.063Z,99.90
2023-05-10T23:47:12.510Z,99.90
2023-05-10T23:52:16.413Z,99.90
2023-05-10T23:57:21.952Z,99.90
